San Francisco International Airport
KSFO : now visible

Airfield :











YOU CAN JOIN US ON...

 
LOGIN :

Register | Disclaimer

   EN    FR    IT 

 









Legend :    VFR   Marginal VFR   IFR   Intensive IFR   Very Intensive IFR
Visi :
Ceiling :
>= 8 km
>= 3000ft
5 to 8 km
1000 to 3000 ft
1500m to 5 km
500 to 1000 ft
800 to 1500m
200 to 500 ft
< 800m
< 200 ft
Symbols :   Thunderstorms  Fog  Heavy snow  Heavy precipitations  Wind > 20 kt






- Airport Elevation : 13 ft
- IATA code : SFO


KSFO - San Francisco International

CURRENT METAR :
  • 082056Z 25006KT 9SM FEW004 BKN012 OVC020 13/10 A3003 RMK AO2 SLP168 T01330100 58013 $

EXPIRED METARs :
  • 081956Z 27009KT 9SM FEW004 FEW008 OVC014 13/10 A3006 RMK AO2 SLP177 T01280100 $
  • 081856Z 26008KT 9SM FEW004 SCT008 OVC013 13/11 A3007 RMK AO2 SLP182 T01280106 $

TAF KSFO
Valid from the 08 at 21:00 until the 10 at 00:00 UTC


082048Z 0821/0924 28009KT P6SM BKN015 BKN025 BKN150
FM090000 28011G18KT P6SM SCT030 BKN120
FM090400 29013G23KT 5SM BR VCSH FEW009 BKN025 OVC100
FM090800 30016G27KT 4SM -RA BR BKN015 OVC025
FM091200 30018G31KT 6SM BR HZ VCSH SCT020 BKN030
FM091700 32011G18KT P6SM FEW025 SCT035
FM092100 VRB05KT P6SM FEW040
KZOA FIR / North America



MET'MAP, your aeronautical weather chart ! - Copyright ORBIFLY December 2007 - Disclaimer

ORBIFLY MET'MAP TEAM :

Programming & Development : Alexandra Zaïnal
Concept & original design : Baudouin d'Aumeries
Assistance for programming : Marc-Olivier Méhu
Technical & hardware support : Manuel Goepfert

Contact : metmap@orbifly.com




SOURCES & CREDITS :

   NOAA       Earth
Advisory